Home > Products > Valid Products > TAF

000
FTUS43 KDVN 250100 AAA
TAFDBQ
TAF AMD
KDBQ 250124Z 2501/2524 21005KT P6SM BKN012
     FM250300 21005KT 1SM BR OVC004
     FM250400 25004KT 1/4SM FG VV002
     FM251100 33008KT P6SM SCT200=



000
FTUS43 KDVN 250000 AAA
TAFCID
TAF AMD
KCID 250035Z 2501/2524 21003KT 2SM BR SCT008 BKN025
     FM250200 17004KT 3SM BR OVC008
      TEMPO 2502/2506 1/2SM FG VV003
     FM250600 VRB03KT 1/2SM FG OVC005
     FM251400 34007KT 6SM HZ SCT250=



000
FTUS43 KDVN 242300
TAFMLI
TAF
KMLI 242320Z 2500/2524 18006KT 6SM HZ BKN040
      TEMPO 2500/2503 3SM -DZ OVC020
     FM250300 21007KT 4SM BR SCT005 BKN035
     FM250500 23004KT 1SM BR OVC004
     FM250700 26004KT 1/2SM FG VV003
     FM251400 29006KT 6SM BR SCT200=



000
FTUS43 KDVN 242300
TAFCID
TAF
KCID 242320Z 2500/2524 21010KT 3SM -DZ BR SCT008 BKN012
     FM250100 17004KT 3SM BR OVC006
      TEMPO 2502/2506 1/2SM FG VV003
     FM250600 VRB03KT 1/2SM FG OVC005
     FM251400 34007KT 6SM HZ SCT250=



000
FTUS43 KDVN 242300
TAFBRL
TAF
KBRL 242320Z 2500/2524 18008KT P6SM SCT010
      TEMPO 2501/2504 1SM BR BKN008
     FM250400 30004KT 1/2SM FG OVC004
     FM251400 33006KT P6SM SCT200=



000
FTUS43 KDVN 242300
TAFDBQ
TAF
KDBQ 242320Z 2500/2524 21007KT P6SM BKN012
     FM250200 21005KT 1SM BR OVC004
     FM250400 25004KT 1/4SM FG VV002
     FM251500 33008KT P6SM SCT200=



000
FTUS43 KDVN 242100 AAD
TAFDBQ
TAF AMD
KDBQ 242159Z 2422/2518 17010KT P6SM SCT010 BKN025
      TEMPO 2422/2424 2SM -DZ BR BKN009
     FM250000 21010KT P6SM BKN012
     FM250200 21006KT 1SM BR OVC004
     FM250400 25004KT 1/4SM FG VV002
     FM251500 33008KT P6SM SCT200=



000
FTUS43 KDVN 242100 AAC
TAFCID
TAF AMD
KCID 242158Z 2422/2518 21010KT 3SM -DZ BR BKN012
     FM242300 18010KT 4SM BR BKN009
     FM250100 17004KT 1SM BR OVC005
     FM251600 34007KT 6SM HZ SCT250=



000
FTUS43 KDVN 242100 AAB
TAFMLI
TAF AMD
KMLI 242132Z 2422/2518 18008KT 6SM HZ BKN040
     FM250000 21007KT 4SM BR SCT005
     FM250200 23004KT 1SM BR OVC004
     FM250700 26004KT 1/2SM FG OVC003
     FM251400 29006KT 6SM BR SCT200=



000
FTUS43 KDVN 242000 AAA
TAFMLI
TAF AMD
KMLI 242028Z 2420/2518 21012KT 6SM HZ BKN040
     FM250000 21007KT 4SM BR SCT005
     FM250200 23004KT 1SM BR OVC004
     FM250800 26004KT 1/2SM FG OVC003
     FM251400 29006KT 6SM BR SCT200=



000
FTUS43 KDVN 242000 AAC
TAFDBQ
TAF AMD
KDBQ 242027Z 2420/2518 17013KT P6SM SCT010 BKN040
      TEMPO 2421/2424 BKN012
     FM250000 21010KT P6SM BKN012
     FM250200 21006KT 1SM BR OVC004
     FM250400 25004KT 1/4SM FG VV002
     FM251500 33008KT P6SM SCT200=



000
FTUS43 KDVN 241900 AAA
TAFBRL
TAF AMD
KBRL 241919Z 2419/2518 19012KT P6SM BKN010
      TEMPO 2419/2421 SCT010
     FM242100 20010KT 6SM BR SCT010 BKN035
     FM250000 20005KT 4SM BR OVC005
     FM250400 30004KT 1SM BR OVC004
     FM251400 33006KT P6SM SCT200=



000
FTUS43 KDVN 241900 AAB
TAFDBQ
TAF AMD
KDBQ 241918Z 2419/2518 20012KT 6SM BR SCT009
      TEMPO 2420/2422 BKN012
     FM242200 21010KT P6SM BKN012
     FM250000 21006KT 1SM BR OVC004
     FM250300 25004KT 1/4SM FG VV002
     FM251500 33008KT P6SM SCT200=



000
FTUS43 KDVN 241900 AAB
TAFCID
TAF AMD
KCID 241916Z 2419/2518 17012KT P6SM BKN006
      TEMPO 2419/2421 SCT005 BKN040
     FM242200 18010KT 4SM BR BKN009
     FM250100 17004KT 1SM BR OVC005
     FM251600 34007KT 6SM HZ SCT250=



000
FTUS43 KDVN 241800 AAA
TAFDBQ
TAF AMD
KDBQ 241829Z 2418/2518 18012KT 3SM BR BKN005
     FM241900 19012KT 5SM BR SCT005
     FM250000 21006KT 1SM BR OVC004
     FM250300 25004KT 1/4SM FG VV002
     FM251500 33008KT P6SM SCT200=



000
FTUS43 KDVN 241800 AAA
TAFCID
TAF AMD
KCID 241828Z 2418/2518 18012KT 2SM BR OVC002
     FM241900 18012KT 3SM BR OVC004
     FM242100 18013KT 5SM BR SCT006 BKN250
     FM250100 17004KT 1SM BR OVC005
     FM251600 34007KT 6SM HZ SCT250=



000
FTUS43 KDVN 241700
TAFBRL
TAF
KBRL 241720Z 2418/2518 20008KT 6SM BR OVC002
     FM242000 20010KT 6SM BR SCT005
     FM250000 20005KT 4SM BR OVC005
     FM250400 30004KT 1SM BR OVC004
     FM251400 33006KT P6SM SCT200=



000
FTUS43 KDVN 241700
TAFMLI
TAF
KMLI 241720Z 2418/2518 20005KT P6SM SCT008
     FM241900 20010KT P6SM SCT200
     FM250000 21005KT 4SM BR SCT005
     FM250200 23004KT 1SM BR OVC004
     FM250800 26004KT 1/2SM FG OVC003
     FM251400 29006KT 6SM BR SCT200=



000
FTUS43 KDVN 241700
TAFDBQ
TAF
KDBQ 241720Z 2418/2518 18012KT 2SM BR OVC002
      TEMPO 2418/2419 4SM BR SCT002
     FM241900 19012KT 6SM BR SCT005
     FM250000 21006KT 1SM BR OVC004
     FM250300 25004KT 1/4SM FG VV002
     FM251500 33008KT P6SM SCT200=



000
FTUS43 KDVN 241700
TAFCID
TAF
KCID 241720Z 2418/2518 18012KT 1/4SM FG OVC002
      TEMPO 2418/2419 1/2SM FG
     FM241900 18012KT 1SM BR OVC004
     FM242100 18013KT 3SM BR SCT006 BKN250
     FM250100 17004KT 1SM BR OVC005
     FM251600 34007KT 6SM HZ SCT250=



000
FTUS43 KDVN 241600 AAC
TAFCID
TAF AMD
KCID 241645Z 2417/2512 16009KT 1/4SM FG OVC002
      TEMPO 2418/2419 1SM BR OVC002
     FM241900 18009KT 3SM BR OVC006
     FM250100 17004KT 3/4SM BR OVC010
     FM250900 28007KT 4SM BR SCT250=



000
FTUS43 KDVN 241600 AAD
TAFBRL
TAF AMD
KBRL 241623Z 2416/2512 18007KT 3/4SM BR OVC002
     FM241800 19008KT 2SM BR OVC004
     FM242000 20008KT 3SM BR OVC009
     FM250000 18005KT 4SM BR BKN015
     FM250900 30005KT P6SM SCT250=



000
FTUS43 KDVN 241600 AAD
TAFMLI
TAF AMD
KMLI 241621Z 2416/2512 19008KT 3SM BR OVC005
     FM241800 21008KT 4SM BR OVC007
     FM250100 21005KT 4SM BR OVC012=



000
FTUS43 KDVN 241500 AAB
TAFCID
TAF AMD
KCID 241507Z 2415/2512 16006KT 1/4SM FG VV001
      TEMPO 2415/2417 0SM FG
     FM241700 17007KT 1SM BR OVC004
     FM241900 18009KT 3SM BR OVC006
     FM250100 17004KT 3/4SM BR OVC010
     FM250900 28007KT 4SM BR SCT250=



000
FTUS43 KDVN 241500 AAB
TAFDBQ
TAF AMD
KDBQ 241506Z 2415/2512 16003KT 1/4SM FG VV001
      TEMPO 2416/2418 1/2SM -DZ FG OVC002
     FM241800 17005KT 1SM BR OVC004
     FM241900 18009KT 3SM BR OVC006
     FM250200 22004KT 3/4SM BR BKN008=



000
FTUS43 KDVN 241500 AAC
TAFBRL
TAF AMD
KBRL 241502Z 2415/2512 20004KT 1/4SM FG VV001
     FM241700 19005KT 1/2SM FG OVC002
     FM241800 19010KT 3SM BR BKN015
     FM250000 18005KT 4SM BR BKN015
     FM250900 30005KT P6SM SCT250=



000
FTUS43 KDVN 241500 AAC
TAFMLI
TAF AMD
KMLI 241501Z 2415/2512 VRB02KT 3/4SM BR OVC003
     FM241700 19009KT 2SM BR OVC004
     FM241800 20008KT 3SM BR BKN010
     FM250100 19005KT 4SM BR OVC010=



000
FTUS43 KDVN 241400 AAB
TAFBRL
TAF AMD
KBRL 241420Z 2414/2512 20004KT 1/4SM FG VV001
      TEMPO 2414/2415 0SM FG
     FM241500 19005KT 1/2SM FG OVC002
     FM241800 19010KT 3SM BR BKN015
     FM250000 18005KT 4SM BR BKN015
     FM250900 30005KT P6SM SCT250=



000
FTUS43 KDVN 241400 AAB
TAFBRL
TAF AMD
KBRL 241420Z 2414/2512 20004KT 1/4SM FG VV001
      TEMPO 2414/2415 0SM FG
     FM241500 19005KT 1/2SM FG OVC002
     FM241800 19010KT 3SM BR BKN015
     FM250000 18005KT 4SM BR BKN015
     FM250900 30005KT P6SM SCT250=



000
FTUS43 KDVN 241400 AAB
TAFMLI
TAF AMD
KMLI 241417Z 2414/2512 VRB02KT 3/4SM BR OVC003
      TEMPO 2414/2415 1/2SM FG OVC002
     FM241500 18006KT 1SM BR OVC004
     FM241700 19009KT 4SM BR OVC008
     FM241800 20008KT 6SM BR BKN025
     FM250100 19005KT 4SM BR OVC010=



000
FTUS43 KDVN 241400 AAB
TAFMLI
TAF AMD
KMLI 241417Z 2414/2512 VRB02KT 3/4SM BR OVC003
      TEMPO 2414/2415 1/2SM FG OVC002
     FM241500 18006KT 1SM BR OVC004
     FM241700 19009KT 4SM BR OVC008
     FM241800 20008KT 6SM BR BKN025
     FM250100 19005KT 4SM BR OVC010=



000
FTUS43 KDVN 241400 AAA
TAFDBQ
TAF AMD
KDBQ 241415Z 2414/2512 16003KT 1/4SM FG VV001
      TEMPO 2414/2415 0SM FG
     FM241600 17005KT 1SM BR OVC004
     FM241700 17007KT 4SM BR OVC008
     FM241900 18009KT 5SM BR BKN015
     FM250200 22004KT 3/4SM BR BKN008=



000
FTUS43 KDVN 241400 AAA
TAFDBQ
TAF AMD
KDBQ 241415Z 2414/2512 16003KT 1/4SM FG VV001
      TEMPO 2414/2415 0SM FG
     FM241600 17005KT 1SM BR OVC004
     FM241700 17007KT 4SM BR OVC008
     FM241900 18009KT 5SM BR BKN015
     FM250200 22004KT 3/4SM BR BKN008=



000
FTUS43 KDVN 241400 AAA
TAFCID
TAF AMD
KCID 241414Z 2414/2512 16006KT 1/4SM FG VV001
      TEMPO 2414/2415 0SM FG
     FM241600 17007KT 1SM BR OVC004
     FM241900 18009KT 4SM BR BKN015
     FM250100 17004KT 3/4SM BR OVC010
     FM250900 28007KT 4SM BR SCT250=



000
FTUS43 KDVN 241400 AAA
TAFCID
TAF AMD
KCID 241414Z 2414/2512 16006KT 1/4SM FG VV001
      TEMPO 2414/2415 0SM FG
     FM241600 17007KT 1SM BR OVC004
     FM241900 18009KT 4SM BR BKN015
     FM250100 17004KT 3/4SM BR OVC010
     FM250900 28007KT 4SM BR SCT250=



000
FTUS43 KDVN 241300 AAA
TAFMLI
TAF AMD
KMLI 241332Z 2414/2512 VRB02KT 3/4SM BR OVC003
      TEMPO 2414/2415 1/2SM FG OVC002
     FM241500 18006KT 1SM BR OVC004
     FM241700 19009KT 6SM BR OVC015
     FM241800 20008KT P6SM BKN025
     FM250100 19005KT 4SM BR OVC010=



000
FTUS43 KDVN 241300 AAA
TAFBRL
TAF AMD
KBRL 241330Z 2414/2512 20004KT 1/4SM FG VV001
      TEMPO 2414/2415 0SM FG
     FM241500 19005KT 1SM BR OVC002
     FM241800 19010KT P6SM BKN025
     FM250000 18005KT 4SM BR BKN015
     FM250900 30005KT P6SM SCT250=



000
FTUS43 KDVN 241100
TAFBRL
TAF
KBRL 241130Z 2412/2512 VRB02KT 1SM BR OVC004
      TEMPO 2412/2414 1/4SM FG VV002
     FM241500 19006KT 4SM BR OVC015
     FM241800 19010KT P6SM BKN025
     FM250000 18005KT 4SM BR BKN015
     FM250900 30005KT P6SM SCT250=



000
FTUS43 KDVN 241100
TAFDBQ
TAF
KDBQ 241130Z 2412/2512 15003KT 1/4SM FG VV001
     FM241500 17005KT 1 1/2SM BR OVC004
     FM241700 17007KT 6SM BR OVC008
     FM241900 18009KT P6SM BKN015
     FM250200 22004KT 3/4SM BR BKN008
     FM250900 30006KT 3SM BR SCT250=



000
FTUS43 KDVN 241100
TAFCID
TAF
KCID 241130Z 2412/2512 VRB02KT 1/4SM FG VV001
     FM241500 16003KT 1/2SM FG VV003
     FM241530 17005KT 1 1/2SM BR OVC004
     FM241600 17007KT 6SM BR SCT004 BKN015
     FM241900 18009KT P6SM BKN025
     FM250100 17004KT 3/4SM BR OVC010
     FM250900 28007KT 4SM BR SCT250=



000
FTUS43 KDVN 241100
TAFMLI
TAF
KMLI 241130Z 2412/2512 VRB02KT 3/4SM BR OVC004
      TEMPO 2412/2414 1/4SM FG VV002
     FM241500 18006KT 4SM BR OVC008
     FM241700 19009KT 6SM BR OVC015
     FM241800 20008KT P6SM BKN025
     FM250100 19005KT 4SM BR OVC010=



000
FTUS43 KDVN 241100 AAB
TAFBRL
TAF AMD
KBRL 241101Z 2411/2506 VRB02KT 4SM BR OVC010
      TEMPO 2411/2413 1/4SM FG VV002
     FM241500 19006KT 6SM BR SCT007 SCT035=



000
FTUS43 KDVN 240900 AAA
TAFBRL
TAF AMD
KBRL 240925Z 2409/2506 VRB02KT 4SM BR OVC010
      TEMPO 2409/2412 1/2SM FG BKN003
     FM241500 19006KT 6SM BR SCT007 SCT035=



000
FTUS43 KDVN 240900 AAA
TAFMLI
TAF AMD
KMLI 240922Z 2409/2506 VRB02KT 1SM BR OVC010
      TEMPO 2409/2412 00000KT 1/2SM FG SCT003
     FM241500 19006KT 6SM BR SCT007 BKN020
     FM241800 20008KT 6SM BR SCT020 SCT120=



000
FTUS43 KDVN 240500
TAFDBQ
TAF
KDBQ 240520Z 2406/2506 20003KT 5SM BR BKN008
      TEMPO 2406/2408 1/2SM FG VV002
     FM240800 18003KT 1/4SM FG VV001
     FM241500 17005KT 1 1/2SM BR OVC003
     FM241700 17007KT 6SM BR SCT004 BKN015
     FM250300 22004KT 1SM BR BKN008=



000
FTUS43 KDVN 240500
TAFCID
TAF
KCID 240520Z 2406/2506 VRB02KT 1/4SM FG VV001
     FM241400 19003KT 1/4SM FG VV002
     FM241530 17005KT 1 1/2SM BR OVC004
     FM241600 17007KT 6SM BR SCT004 BKN015
     FM241800 18009KT 6SM BR SCT015 SCT120=



000
FTUS43 KDVN 240500
TAFBRL
TAF
KBRL 240520Z 2406/2506 18006KT P6SM BKN015
     FM240700 22003KT 4SM BR SCT015
      TEMPO 2407/2411 1/4SM FG VV002
     FM241100 22003KT 1/2SM FG BKN004
     FM241500 19006KT 6SM BR SCT007 SCT035=



000
FTUS43 KDVN 240500
TAFMLI
TAF
KMLI 240520Z 2406/2506 23001KT P6SM SCT005 SCT030
      TEMPO 2406/2408 1/2SM FG SCT002
     FM240800 21003KT 1/2SM FG VV003
     FM241500 19006KT 6SM BR SCT007 BKN020
     FM241800 20008KT 6SM BR SCT020 SCT120=



000
FTUS43 KDVN 240300 AAA
TAFBRL
TAF AMD
KBRL 240348Z 2404/2424 18006KT P6SM BKN020
     FM240500 22003KT 5SM BR FEW007 BKN020
      TEMPO 2405/2409 1/2SM FG VV002
     FM240900 22003KT 1/2SM FG BKN004
     FM241500 19006KT 6SM BR SCT007 SCT035=



000
FTUS43 KDVN 240300 AAA
TAFBRL
TAF AMD
KBRL 240348Z 2404/2424 18006KT P6SM BKN020
     FM240500 22003KT 5SM BR FEW007 BKN020
      TEMPO 2405/2409 1/2SM FG VV002
     FM240900 22003KT 1/2SM FG BKN004
     FM241500 19006KT 6SM BR SCT007 SCT035=



000
FTUS43 KDVN 240300 AAC
TAFCID
TAF AMD
KCID 240322Z 2403/2424 VRB02KT 1/2SM FG VV005
      TEMPO 2403/2406 1/4SM FG VV001
     FM240600 19003KT 1/4SM FG VV002
     FM241430 17005KT 1 1/2SM BR OVC004
     FM241600 17007KT 6SM BR SCT004 BKN015=



000
FTUS43 KDVN 240300 AAC
TAFCID
TAF AMD
KCID 240322Z 2403/2424 VRB02KT 1/2SM FG VV005
      TEMPO 2403/2406 1/4SM FG VV001
     FM240600 19003KT 1/4SM FG VV002
     FM241430 17005KT 1 1/2SM BR OVC004
     FM241600 17007KT 6SM BR SCT004 BKN015=



000
FTUS43 KDVN 240300 AAB
TAFDBQ
TAF AMD
KDBQ 240302Z 2403/2424 20003KT 5SM BR BKN012
      TEMPO 2404/2408 1/2SM FG VV002
     FM240800 18003KT 1/2SM FG OVC002
     FM241500 17005KT 1 1/2SM BR OVC003
     FM241700 17007KT 6SM BR SCT004 BKN015=



000
FTUS43 KDVN 240300 AAB
TAFDBQ
TAF AMD
KDBQ 240302Z 2403/2424 20003KT 5SM BR BKN012
      TEMPO 2404/2408 1/2SM FG VV002
     FM240800 18003KT 1/2SM FG OVC002
     FM241500 17005KT 1 1/2SM BR OVC003
     FM241700 17007KT 6SM BR SCT004 BKN015=



000
FTUS43 KDVN 240200 AAB
TAFCID
TAF AMD
KCID 240215Z 2402/2424 VRB02KT 1SM BR SCT002 SCT015
      TEMPO 2402/2406 1/4SM FG VV002
     FM240600 19003KT 1/2SM FG BKN002
     FM241430 17005KT 1 1/2SM BR OVC004
     FM241600 17007KT 6SM BR SCT004 BKN015=



000
FTUS43 KDVN 240200 AAB
TAFCID
TAF AMD
KCID 240215Z 2402/2424 VRB02KT 1SM BR SCT002 SCT015
      TEMPO 2402/2406 1/4SM FG VV002
     FM240600 19003KT 1/2SM FG BKN002
     FM241430 17005KT 1 1/2SM BR OVC004
     FM241600 17007KT 6SM BR SCT004 BKN015=



000
FTUS43 KDVN 240100 AAA
TAFMLI
TAF AMD
KMLI 240150Z 2402/2424 19001KT P6SM OVC035
     FM240200 20003KT P6SM BKN020
     FM240600 21003KT 5SM BR FEW007 BKN020
     FM241000 21003KT 1SM BR SCT003 BKN010
     FM241500 19006KT 6SM BR SCT007 BKN035=



000
FTUS43 KDVN 240100 AAA
TAFMLI
TAF AMD
KMLI 240150Z 2402/2424 19001KT P6SM OVC035
     FM240200 20003KT P6SM BKN020
     FM240600 21003KT 5SM BR FEW007 BKN020
     FM241000 21003KT 1SM BR SCT003 BKN010
     FM241500 19006KT 6SM BR SCT007 BKN035=



000
FTUS43 KDVN 240000 AAA
TAFCID
TAF AMD
KCID 240053Z 2401/2424 VRB02KT 1/2SM FG SCT002 SCT015
      TEMPO 2401/2405 1/4SM FG VV002
     FM240600 19003KT 1/2SM FG BKN002
     FM241430 17005KT 1 1/2SM BR OVC004
     FM241600 17007KT 6SM BR SCT004 BKN015=



000
FTUS43 KDVN 240000 AAA
TAFDBQ
TAF AMD
KDBQ 240024Z 2400/2424 22001KT P6SM BKN008
     FM240200 20003KT 4SM BR BKN008
      TEMPO 2402/2406 1/2SM FG VV002
     FM240600 19003KT 1SM BR BKN002
     FM240800 18003KT 1/2SM FG OVC002
     FM241500 17005KT 1 1/2SM BR OVC003
     FM241700 17007KT 6SM BR SCT004 BKN015=



000
FTUS43 KDVN 232300
TAFDBQ
TAF
KDBQ 232320Z 2400/2424 22004KT P6SM BKN012
     FM240400 20003KT 4SM BR BKN008
     FM240600 19003KT 1SM BR BKN002
     FM240800 18003KT 1/2SM FG OVC002
     FM241500 17005KT 1 1/2SM BR OVC003
     FM241700 17007KT 6SM BR SCT004 BKN015=



000
FTUS43 KDVN 232300
TAFMLI
TAF
KMLI 232320Z 2400/2424 19007KT P6SM VCSH OVC030
     FM240200 20003KT P6SM BKN020
     FM240600 21003KT 5SM BR FEW007 BKN020
     FM241000 21003KT 1SM BR SCT003 BKN010
     FM241500 19006KT 6SM BR SCT007 BKN035=



000
FTUS43 KDVN 232300
TAFBRL
TAF
KBRL 232320Z 2400/2424 18006KT P6SM VCSH BKN040 OVC100
     FM240200 22003KT P6SM BKN035
     FM240600 22003KT 5SM BR FEW007 BKN035
     FM241000 22003KT 2SM BR SCT007 BKN020
     FM241500 19006KT 6SM BR SCT007 SCT035=



000
FTUS43 KDVN 232300
TAFCID
TAF
KCID 232320Z 2400/2424 18009KT P6SM SCT015
      TEMPO 2400/2404 4SM BR BKN015
     FM240400 20003KT 4SM BR SCT002
     FM240600 19003KT 1SM BR BKN002
     FM240700 18003KT 1/2SM FG OVC002
     FM241430 17005KT 1 1/2SM BR OVC004
     FM241600 17007KT 6SM BR SCT004 BKN015=



000
FTUS43 KDVN 232200 AAA
TAFCID
TAF AMD
KCID 232241Z 2323/2418 18009KT P6SM VCSH SCT015 OVC025
      TEMPO 2323/2402 OVC015
     FM240200 21003KT P6SM SCT010
     FM240600 20003KT 5SM BR SCT002
     FM240800 19003KT 1SM BR BKN002
     FM241030 18003KT 1/2SM FG OVC002
     FM241430 17005KT 1 1/2SM BR OVC004
     FM241600 17007KT 6SM BR SCT004=



000
FTUS43 KDVN 232100 AAA
TAFMLI
TAF AMD
KMLI 232142Z 2322/2418 19007KT P6SM VCSH OVC025
     FM240200 20003KT P6SM BKN020
     FM240600 21003KT 5SM BR FEW007 BKN020
     FM241000 21003KT 2SM BR BKN010
     FM241600 19006KT 6SM BR SCT007 SCT035=



000
FTUS43 KDVN 232100 AAA
TAFMLI
TAF AMD
KMLI 232142Z 2322/2418 19007KT P6SM VCSH OVC025
     FM240200 20003KT P6SM BKN020
     FM240600 21003KT 5SM BR FEW007 BKN020
     FM241000 21003KT 2SM BR BKN010
     FM241600 19006KT 6SM BR SCT007 SCT035=



000
FTUS43 KDVN 231900 AAB
TAFDBQ
TAF AMD
KDBQ 231901Z 2319/2418 18011KT P6SM VCSH BKN015
     FM232000 18008KT P6SM OVC015
     FM240400 21003KT 5SM BR SCT007
     FM240900 21003KT 1SM BR BKN002
     FM241030 21003KT 1/2SM FG OVC002
     FM241500 19006KT 1 1/2SM BR OVC004
     FM241700 19009KT 6SM BR SCT004=



000
FTUS43 KDVN 231900 AAB
TAFDBQ
TAF AMD
KDBQ 231901Z 2319/2418 18011KT P6SM VCSH BKN015
     FM232000 18008KT P6SM OVC015
     FM240400 21003KT 5SM BR SCT007
     FM240900 21003KT 1SM BR BKN002
     FM241030 21003KT 1/2SM FG OVC002
     FM241500 19006KT 1 1/2SM BR OVC004
     FM241700 19009KT 6SM BR SCT004=



000
FTUS43 KDVN 231800 AAA
TAFDBQ
TAF AMD
KDBQ 231807Z 2318/2418 18011KT P6SM VCSH BKN020 OVC060
      TEMPO 2318/2319 1SM SHRA BR BKN015
     FM232000 18008KT P6SM OVC015
     FM240400 21003KT 5SM BR SCT007
     FM240900 21003KT 1SM BR BKN002
     FM241030 21003KT 1/2SM FG OVC002
     FM241500 19006KT 1 1/2SM BR OVC004
     FM241700 19009KT 6SM BR SCT004=



000
FTUS43 KDVN 231800 AAA
TAFDBQ
TAF AMD
KDBQ 231807Z 2318/2418 18011KT P6SM VCSH BKN020 OVC060
      TEMPO 2318/2319 1SM SHRA BR BKN015
     FM232000 18008KT P6SM OVC015
     FM240400 21003KT 5SM BR SCT007
     FM240900 21003KT 1SM BR BKN002
     FM241030 21003KT 1/2SM FG OVC002
     FM241500 19006KT 1 1/2SM BR OVC004
     FM241700 19009KT 6SM BR SCT004=



000
FTUS43 KDVN 231700
TAFBRL
TAF
KBRL 231722Z 2318/2418 20013KT P6SM VCSH BKN040 OVC100
     FM232200 20008KT P6SM OVC035
     FM240200 22003KT P6SM BKN035
     FM240600 22003KT 5SM BR FEW007 BKN035
     FM241000 22003KT 2SM BR SCT007 BKN035
     FM241500 19006KT 6SM BR SCT007 SCT035=



000
FTUS43 KDVN 231700
TAFMLI
TAF
KMLI 231722Z 2318/2418 19007KT P6SM VCSH SCT025 OVC060
     FM232200 19007KT P6SM OVC035
     FM240100 20003KT P6SM BKN035
     FM240600 21003KT 5SM BR FEW007 BKN035
     FM241000 21003KT 2SM BR SCT007 BKN035
     FM241500 19006KT 6SM BR SCT007 SCT035=



000
FTUS43 KDVN 231700
TAFDBQ
TAF
KDBQ 231722Z 2318/2418 18011KT P6SM VCSH BKN020 OVC060
     FM232000 18008KT P6SM OVC015
     FM240400 21003KT 5SM BR SCT007
     FM240900 21003KT 1SM BR BKN002
     FM241030 21003KT 1/2SM FG OVC002
     FM241500 19006KT 1 1/2SM BR OVC004
     FM241700 19009KT 6SM BR SCT004=



000
FTUS43 KDVN 231700
TAFCID
TAF
KCID 231722Z 2318/2418 18009KT P6SM VCSH OVC012
     FM232000 20007KT P6SM OVC010
     FM240200 21003KT P6SM SCT010
     FM240600 20003KT 5SM BR SCT002
     FM240900 19003KT 1SM BR BKN002
     FM241030 18003KT 1/2SM FG OVC002
     FM241430 17005KT 1 1/2SM BR OVC004
     FM241600 17007KT 6SM BR SCT004=



000
FTUS43 KDVN 231700 AAB
TAFCID
TAF AMD
KCID 231700Z 2317/2412 17008KT P6SM VCSH BKN012 BKN020 OVC100
     FM232100 22007KT P6SM SCT040
     FM240100 15004KT 5SM BR FEW040
     FM240800 16003KT 1SM BR SCT005=



000
FTUS43 KDVN 231700 AAB
TAFCID
TAF AMD
KCID 231700Z 2317/2412 17008KT P6SM VCSH BKN012 BKN020 OVC100
     FM232100 22007KT P6SM SCT040
     FM240100 15004KT 5SM BR FEW040
     FM240800 16003KT 1SM BR SCT005=



000
FTUS43 KDVN 231600 AAB
TAFDBQ
TAF AMD
KDBQ 231655Z 2317/2412 18010KT 6SM -SHRA BKN020 BKN035
     FM231900 22012KT P6SM BKN025
     FM240100 17004KT 5SM BR SCT040
     FM240800 16003KT 1SM BR SCT005=



000
FTUS43 KDVN 231600 AAB
TAFDBQ
TAF AMD
KDBQ 231655Z 2317/2412 18010KT 6SM -SHRA BKN020 BKN035
     FM231900 22012KT P6SM BKN025
     FM240100 17004KT 5SM BR SCT040
     FM240800 16003KT 1SM BR SCT005=



000
FTUS43 KDVN 231500 AAA
TAFCID
TAF AMD
KCID 231559Z 2316/2412 17008KT P6SM VCSH SCT012 BKN020 OVC100
     FM231800 19010KT P6SM BKN040
     FM232100 22007KT P6SM SCT040
     FM240100 15004KT 5SM BR FEW040
     FM240800 16003KT 1SM BR SCT005=



000
FTUS43 KDVN 231500 AAA
TAFCID
TAF AMD
KCID 231559Z 2316/2412 17008KT P6SM VCSH SCT012 BKN020 OVC100
     FM231800 19010KT P6SM BKN040
     FM232100 22007KT P6SM SCT040
     FM240100 15004KT 5SM BR FEW040
     FM240800 16003KT 1SM BR SCT005=



000
FTUS43 KDVN 231500 AAA
TAFDBQ
TAF AMD
KDBQ 231521Z 2315/2412 18010KT 6SM -SHRA BKN035
      TEMPO 2315/2316 2SM SHRA
     FM231900 20012KT P6SM BKN040
     FM240100 17004KT 5SM BR SCT040
     FM240800 16003KT 1SM BR SCT005=



000
FTUS43 KDVN 231100
TAFMLI
TAF
KMLI 231133Z 2312/2412 14006KT P6SM BKN040
     FM231600 18010KT 6SM -SHRA BKN035
     FM232100 20008KT P6SM BKN040
     FM240200 VRB02KT 5SM BR SCT040
     FM240800 VRB02KT 2SM BR SCT005=



000
FTUS43 KDVN 231100
TAFBRL
TAF
KBRL 231133Z 2312/2412 18010KT P6SM BKN150
     FM231600 19012KT P6SM -SHRA BKN040
     FM232200 22008KT P6SM BKN040
     FM240100 VRB02KT 5SM BR SCT040
     FM240800 VRB02KT 2SM BR SCT005=



000
FTUS43 KDVN 231100
TAFDBQ
TAF
KDBQ 231133Z 2312/2412 16007KT P6SM BKN040
     FM231400 18010KT 6SM -SHRA BKN035
     FM231900 20012KT P6SM BKN040
     FM240100 17004KT 5SM BR SCT040
     FM240800 16003KT 1SM BR SCT005=



000
FTUS43 KDVN 231100
TAFCID
TAF
KCID 231133Z 2312/2412 15008KT 6SM -SHRA BKN035
     FM231800 19010KT P6SM BKN040
     FM232100 22007KT P6SM SCT040
     FM240100 15004KT 5SM BR FEW040
     FM240800 16003KT 1SM BR SCT005=



000
FTUS43 KDVN 230500
TAFCID
TAF
KCID 230520Z 2306/2406 16007KT P6SM BKN070
     FM231000 15008KT P6SM VCSH OVC060
     FM231400 17009KT 6SM -RA BR OVC040
     FM231900 21008KT P6SM SCT035 BKN120=



000
FTUS43 KDVN 230500
TAFMLI
TAF
KMLI 230520Z 2306/2406 14007KT P6SM BKN150
     FM231100 15008KT P6SM BKN070
     FM231400 15008KT P6SM VCSH OVC060
     FM231600 17009KT P6SM -RA OVC040
     FM232200 21008KT P6SM SCT035 BKN120=



000
FTUS43 KDVN 230500
TAFDBQ
TAF
KDBQ 230520Z 2306/2406 16008KT P6SM BKN070
     FM231200 15008KT P6SM VCSH OVC060
     FM231600 17009KT 6SM -RA BR OVC040
     FM232100 21008KT P6SM SCT035 BKN120=



000
FTUS43 KDVN 230500
TAFBRL
TAF
KBRL 230520Z 2306/2406 14007KT P6SM BKN150
     FM231100 15008KT P6SM BKN070
     FM231400 15008KT P6SM VCSH OVC060
     FM231600 17009KT P6SM -RA OVC040
     FM232200 21008KT P6SM SCT035 BKN120=



000
FTUS43 KDVN 222300
TAFBRL
TAF
KBRL 222320Z 2300/2324 14007KT P6SM BKN150
     FM231100 15008KT P6SM BKN070
     FM231400 15008KT P6SM VCSH OVC060
     FM231600 17009KT P6SM -RA OVC040
     FM232200 21008KT P6SM SCT035 BKN120=



000
FTUS43 KDVN 222300
TAFDBQ
TAF
KDBQ 222320Z 2300/2324 14007KT P6SM BKN150
     FM230800 15008KT P6SM BKN070
     FM231300 15008KT P6SM VCSH OVC060
     FM231600 17009KT 6SM -RA BR OVC040
     FM232100 21008KT P6SM SCT035 BKN120=



000
FTUS43 KDVN 222300
TAFCID
TAF
KCID 222320Z 2300/2324 14007KT P6SM BKN150
     FM230600 15008KT P6SM BKN070
     FM231100 15008KT P6SM VCSH OVC060
     FM231400 17009KT 6SM -RA BR OVC040
     FM231900 21008KT P6SM SCT035 BKN120=



000
FTUS43 KDVN 222300
TAFMLI
TAF
KMLI 222320Z 2300/2324 14007KT P6SM BKN150
     FM231100 15008KT P6SM BKN070
     FM231400 15008KT P6SM VCSH OVC060
     FM231600 17009KT P6SM -RA OVC040
     FM232200 21008KT P6SM SCT035 BKN120=



000
FTUS43 KDVN 221700
TAFDBQ
TAF
KDBQ 221720Z 2218/2318 16012KT P6SM SKC
     FM230000 15008KT P6SM SKC
     FM230600 16008KT P6SM BKN070
     FM231300 17010KT P6SM VCSH OVC060
     FM231600 18010KT 6SM -RA BR OVC040=



000
FTUS43 KDVN 221700
TAFBRL
TAF
KBRL 221720Z 2218/2318 15009KT P6SM SKC
     FM230000 14006KT P6SM SKC
     FM230600 16007KT P6SM SCT080
     FM231200 17007KT P6SM BKN060
     FM231500 18009KT P6SM VCSH OVC060=



000
FTUS43 KDVN 221700
TAFCID
TAF
KCID 221720Z 2218/2318 15011KT P6SM SKC
     FM230000 14008KT P6SM SCT060
     FM230600 15008KT P6SM BKN070
     FM231100 15008KT P6SM VCSH OVC060
     FM231400 17009KT 6SM -RA BR OVC040=



000
FTUS43 KDVN 221700
TAFMLI
TAF
KMLI 221720Z 2218/2318 16009KT P6SM SKC
     FM230000 13005KT P6SM SKC
     FM230600 14005KT P6SM SCT080
     FM231200 15006KT P6SM BKN060
     FM231500 18009KT P6SM VCSH OVC060=



000
FTUS43 KDVN 221700
TAFMLI
TAF
KMLI 221720Z 2218/2318 16009KT P6SM SKC
     FM230000 13005KT P6SM SKC
     FM230600 14005KT P6SM SCT080
     FM231200 15006KT P6SM BKN060
     FM231500 18009KT P6SM VCSH OVC060=



000
FTUS43 KDVN 221700
TAFDBQ
TAF
KDBQ 221720Z 2218/2318 16012KT P6SM SKC
     FM230000 15008KT P6SM SKC
     FM230600 16008KT P6SM BKN070
     FM231300 17010KT P6SM VCSH OVC060
     FM231600 18010KT 6SM -RA BR OVC040=



000
FTUS43 KDVN 221700
TAFBRL
TAF
KBRL 221720Z 2218/2318 15009KT P6SM SKC
     FM230000 14006KT P6SM SKC
     FM230600 16007KT P6SM SCT080
     FM231200 17007KT P6SM BKN060
     FM231500 18009KT P6SM VCSH OVC060=



000
FTUS43 KDVN 221700
TAFCID
TAF
KCID 221720Z 2218/2318 15011KT P6SM SKC
     FM230000 14008KT P6SM SCT060
     FM230600 15008KT P6SM BKN070
     FM231100 15008KT P6SM VCSH OVC060
     FM231400 17009KT 6SM -RA BR OVC040=



000
FTUS43 KDVN 221300 AAA
TAFCID
TAF AMD
KCID 221309Z 2213/2312 11006KT P6SM SKC
      TEMPO 2213/2214 5SM BR
     FM221630 15012KT P6SM SKC
     FM230000 14007KT P6SM SCT100
     FM230800 15008KT P6SM VCSH BKN040=



000
FTUS43 KDVN 221100
TAFDBQ
TAF
KDBQ 221120Z 2212/2312 11006KT P6SM SKC
     FM221630 16012KT P6SM SKC
     FM230000 15007KT P6SM SCT200=



000
FTUS43 KDVN 221100
TAFCID
TAF
KCID 221120Z 2212/2312 11006KT P6SM SKC
     FM221630 15012KT P6SM SKC
     FM230000 14007KT P6SM SCT100
     FM230800 15008KT P6SM VCSH BKN040=



000
FTUS43 KDVN 221100
TAFBRL
TAF
KBRL 221120Z 2212/2312 12005KT P6SM SKC
     FM221600 15009KT P6SM SKC
     FM230200 14006KT P6SM SCT200=



000
FTUS43 KDVN 221100
TAFMLI
TAF
KMLI 221120Z 2212/2312 11005KT P6SM SKC
     FM221600 14009KT P6SM SKC
     FM230000 13005KT P6SM SCT200=



000
FTUS43 KDVN 220500
TAFCID
TAF
KCID 220520Z 2206/2306 10004KT P6SM SKC
     FM221600 13009KT P6SM SKC=



000
FTUS43 KDVN 220500
TAFMLI
TAF
KMLI 220520Z 2206/2306 10004KT P6SM SKC
     FM221600 13009KT P6SM SKC
     FM230200 12005KT P6SM SCT250=



000
FTUS43 KDVN 220500
TAFDBQ
TAF
KDBQ 220520Z 2206/2306 10004KT P6SM SKC
     FM221600 13009KT P6SM SKC=



000
FTUS43 KDVN 220500
TAFBRL
TAF
KBRL 220520Z 2206/2306 10004KT P6SM SKC
     FM221600 13009KT P6SM SKC
     FM230200 12005KT P6SM SCT250=



000
FTUS43 KDVN 220500
TAFMLI
TAF
KMLI 220520Z 2206/2306 10004KT P6SM SKC
     FM221600 13009KT P6SM SKC
     FM230200 12005KT P6SM SCT250=



000
FTUS43 KDVN 220500
TAFBRL
TAF
KBRL 220520Z 2206/2306 10004KT P6SM SKC
     FM221600 13009KT P6SM SKC
     FM230200 12005KT P6SM SCT250=



000
FTUS43 KDVN 220500
TAFDBQ
TAF
KDBQ 220520Z 2206/2306 10004KT P6SM SKC
     FM221600 13009KT P6SM SKC=



000
FTUS43 KDVN 220500
TAFCID
TAF
KCID 220520Z 2206/2306 10004KT P6SM SKC
     FM221600 13009KT P6SM SKC=



    US Dept of Commerce
    National Oceanic and Atmospheric Administration
    National Weather Service
    1325 East West Highway
    Silver Spring, MD 20910
    Page Author: NWS Internet Services Team
Disclaimer
Information Quality
Credits
Glossary
Privacy Policy
Freedom of Information Act (FOIA)
About Us
Career Opportunities